Time;durP1;ratioP1;P1;durP2;ratioP2;P2;SDS_P1;SDS_P2;PMS_P1;PMS_P2;Temp;Humidity;BMP_temperature;BMP_pressure;BME280_temperature;BME280_humidity;BME280_pressure;Samples;Min_cycle;Max_cycle;Signal;HPM_P1;HPM_P2
2022/05/12 00:01:11;;;;;;;0.10;0.10;;;;;;;22.53;44.16;100920.25;5125974;27;20469;-30
2022/05/12 00:03:36;;;;;;;0.10;0.10;;;;;;;22.53;44.25;100930.53;5127051;28;20115;-30
2022/05/12 00:06:02;;;;;;;0.10;0.10;;;;;;;22.53;44.29;100931.34;5127418;27;20055;-29
2022/05/12 00:08:28;;;;;;;0.10;0.10;;;;;;;22.52;44.18;100928.88;5109420;27;20043;-31
2022/05/12 00:10:54;;;;;;;0.10;0.10;;;;;;;22.52;44.16;100934.44;5128077;27;20088;-29
2022/05/12 00:13:20;;;;;;;0.10;0.10;;;;;;;22.53;44.14;100949.94;5127908;28;20430;-30
2022/05/12 00:15:46;;;;;;;0.10;0.10;;;;;;;22.52;44.13;100942.75;5127850;27;20044;-30
2022/05/12 00:18:12;;;;;;;0.10;0.10;;;;;;;22.51;44.23;100950.25;5127395;27;20124;-29
2022/05/12 00:20:39;;;;;;;0.10;0.10;;;;;;;22.52;44.12;100953.84;5127403;28;20068;-31
2022/05/12 00:23:09;;;;;;;0.10;0.10;;;;;;;22.51;44.16;100955.81;5126629;27;20061;-29
2022/05/12 00:25:35;;;;;;;0.10;0.10;;;;;;;22.49;44.17;100949.72;5127796;27;20089;-30
2022/05/12 00:28:00;;;;;;;0.10;0.10;;;;;;;22.49;44.24;100955.28;5126036;27;20039;-31
2022/05/12 00:30:26;;;;;;;0.10;0.10;;;;;;;22.50;44.25;100950.56;5127272;28;20047;-29
2022/05/12 00:32:52;;;;;;;0.10;0.10;;;;;;;22.49;44.25;100960.81;5125630;27;20544;-30
2022/05/12 00:35:18;;;;;;;0.10;0.10;;;;;;;22.48;44.17;100956.41;5127160;28;20051;-30
2022/05/12 00:37:44;;;;;;;0.10;0.10;;;;;;;22.49;44.20;100965.56;5127282;27;20074;-30
2022/05/12 00:40:10;;;;;;;0.10;0.10;;;;;;;22.48;44.07;100967.50;5126842;28;20047;-30
2022/05/12 00:42:36;;;;;;;0.10;0.10;;;;;;;22.47;44.08;100976.97;5126645;27;20138;-31
2022/05/12 00:45:03;;;;;;;0.10;0.10;;;;;;;22.48;44.21;100973.06;5130635;27;20070;-29
2022/05/12 00:47:28;;;;;;;0.10;0.10;;;;;;;22.48;44.27;100978.59;5125703;27;20146;-31
2022/05/12 00:49:54;;;;;;;0.10;0.10;;;;;;;22.47;44.23;100990.03;5125289;27;20051;-30
2022/05/12 00:52:23;;;;;;;0.10;0.10;;;;;;;22.48;44.21;100994.44;5126898;27;20051;-29
2022/05/12 00:54:57;;;;;;;0.10;0.10;;;;;;;22.48;44.17;101002.75;5128270;27;20557;-29
2022/05/12 00:57:35;;;;;;;0.10;0.10;;;;;;;22.47;44.14;101004.72;5127734;27;20134;-29
2022/05/12 01:00:03;;;;;;;0.10;0.10;;;;;;;22.47;44.15;100998.34;5126740;27;20321;-30
2022/05/12 01:02:31;;;;;;;0.10;0.10;;;;;;;22.46;44.15;101010.59;5124443;28;20126;-29
2022/05/12 01:04:57;;;;;;;0.10;0.10;;;;;;;22.47;44.13;101020.53;5109707;27;20160;-29
2022/05/12 01:07:23;;;;;;;0.10;0.10;;;;;;;22.46;44.20;101018.91;5128658;27;20160;-30
2022/05/12 01:09:49;;;;;;;0.10;0.10;;;;;;;22.46;44.25;101018.91;5129732;27;20063;-30
2022/05/12 01:12:15;;;;;;;0.10;0.10;;;;;;;22.44;44.11;101019.19;5130492;28;20077;-31
2022/05/12 01:14:40;;;;;;;0.10;0.10;;;;;;;22.46;44.12;101016.13;5129639;28;20051;-30
2022/05/12 01:17:07;;;;;;;0.10;0.10;;;;;;;22.44;44.19;101030.28;5132910;27;20057;-31
2022/05/12 01:19:36;;;;;;;0.10;0.10;;;;;;;22.45;44.15;101033.88;5129966;27;20085;-28
2022/05/12 01:22:04;;;;;;;0.10;0.10;;;;;;;22.44;44.20;101024.72;5130115;27;20067;-28
2022/05/12 01:24:33;;;;;;;0.10;0.10;;;;;;;22.44;44.26;101043.34;5130456;27;20077;-28
2022/05/12 01:27:18;;;;;;;0.10;0.10;;;;;;;22.43;44.16;101047.25;5130733;27;20063;-29
2022/05/12 01:29:49;;;;;;;0.10;0.10;;;;;;;22.43;44.16;101039.75;5115339;27;20079;-30
2022/05/12 01:32:15;;;;;;;0.10;0.10;;;;;;;22.43;44.41;101045.28;5128942;27;20477;-29
2022/05/12 01:34:40;;;;;;;0.10;0.10;;;;;;;22.43;44.13;101048.06;5131127;27;20051;-29
2022/05/12 01:37:06;;;;;;;0.10;0.10;;;;;;;22.42;44.21;101049.19;5129244;27;20084;-30
2022/05/12 01:39:35;;;;;;;0.10;0.10;;;;;;;22.42;44.16;101054.75;5128767;27;20039;-30
2022/05/12 01:42:03;;;;;;;0.10;0.10;;;;;;;22.42;44.21;101057.53;5133235;27;20077;-31
2022/05/12 01:44:28;;;;;;;0.10;0.10;;;;;;;22.42;44.25;101073.34;5111205;28;20075;-30
2022/05/12 01:46:54;;;;;;;0.10;0.10;;;;;;;22.42;43.87;101079.72;5124753;28;20047;-29
2022/05/12 01:49:20;;;;;;;1.45;0.13;;;;;;;22.43;44.12;101083.31;5129843;27;20047;-29
2022/05/12 01:51:45;;;;;;;0.10;0.10;;;;;;;22.41;44.20;101083.63;5129095;27;20108;-29
2022/05/12 01:54:11;;;;;;;0.10;0.10;;;;;;;22.42;44.21;101092.78;5129803;28;20039;-29
2022/05/12 01:56:37;;;;;;;0.10;0.10;;;;;;;22.41;44.17;101093.88;5128614;27;20054;-31
2022/05/12 01:59:02;;;;;;;0.10;0.10;;;;;;;22.41;43.96;101100.28;5129153;27;20041;-29
2022/05/12 02:01:28;;;;;;;0.10;0.10;;;;;;;22.41;44.20;101104.97;5127510;27;20469;-29
2022/05/12 02:03:54;;;;;;;0.10;0.10;;;;;;;22.40;44.16;101106.13;5128067;27;20494;-31
2022/05/12 02:06:19;;;;;;;0.10;0.10;;;;;;;22.41;44.10;101113.31;5128970;27;21104;-30
2022/05/12 02:08:45;;;;;;;0.10;0.10;;;;;;;22.40;43.99;101120.81;5129135;27;20039;-30
2022/05/12 02:11:11;;;;;;;0.10;0.10;;;;;;;22.40;44.10;101117.22;5129519;27;20051;-29
2022/05/12 02:13:36;;;;;;;0.10;0.10;;;;;;;22.40;44.13;101133.84;5129123;27;20079;-29
2022/05/12 02:16:02;;;;;;;0.10;0.10;;;;;;;22.41;44.07;101132.72;5129063;27;20039;-29
2022/05/12 02:18:29;;;;;;;0.10;0.10;;;;;;;22.39;44.48;101130.25;5130028;27;20069;-29
2022/05/12 02:20:55;;;;;;;0.10;0.10;;;;;;;22.39;44.22;101135.00;5127710;27;20468;-29
2022/05/12 02:23:21;;;;;;;0.10;0.10;;;;;;;22.39;44.12;101141.38;5129245;27;20049;-29
2022/05/12 02:25:46;;;;;;;0.10;0.10;;;;;;;22.39;44.25;101143.31;5129312;27;20507;-30
2022/05/12 02:28:12;;;;;;;0.10;0.10;;;;;;;22.38;44.37;101145.25;5132947;27;20450;-30
2022/05/12 02:30:38;;;;;;;0.10;0.10;;;;;;;22.38;44.11;101148.03;5112368;27;20190;-29
2022/05/12 02:33:04;;;;;;;0.10;0.10;;;;;;;22.38;44.15;101155.53;5126916;28;20051;-29
2022/05/12 02:35:30;;;;;;;0.10;0.10;;;;;;;22.38;44.15;101155.53;5128359;28;20134;-29
2022/05/12 02:37:56;;;;;;;0.10;0.10;;;;;;;22.37;44.18;101165.00;5129130;27;20265;-30
2022/05/12 02:40:24;;;;;;;0.10;0.10;;;;;;;22.37;44.21;101165.81;5128253;28;20827;-29
2022/05/12 02:42:50;;;;;;;0.10;0.10;;;;;;;22.37;44.21;101179.69;5126798;27;20485;-31
2022/05/12 02:45:16;;;;;;;0.10;0.10;;;;;;;22.36;44.15;101175.25;5128670;28;20039;-29
2022/05/12 02:47:42;;;;;;;0.10;0.10;;;;;;;22.37;44.24;101176.91;5125959;27;20531;-30
2022/05/12 02:50:09;;;;;;;0.10;0.10;;;;;;;22.36;44.15;101177.19;5127700;28;20055;-29
2022/05/12 02:52:34;;;;;;;0.10;0.10;;;;;;;22.36;44.19;101179.97;5126939;27;20586;-30
2022/05/12 02:55:00;;;;;;;0.10;0.10;;;;;;;22.36;43.90;101180.78;5128647;28;20054;-29
2022/05/12 02:57:26;;;;;;;0.10;0.10;;;;;;;22.36;44.16;101180.78;5128166;27;20429;-29
2022/05/12 02:59:51;;;;;;;0.10;0.10;;;;;;;22.36;44.16;101191.91;5128219;28;20099;-29
2022/05/12 03:02:18;;;;;;;0.10;0.10;;;;;;;22.36;44.18;101191.91;5127971;27;20043;-29
2022/05/12 03:04:44;;;;;;;0.10;0.10;;;;;;;22.35;44.14;101193.03;5128465;27;20371;-29
2022/05/12 03:07:10;;;;;;;0.10;0.10;;;;;;;22.35;44.24;101195.78;5127211;27;20047;-29
2022/05/12 03:09:36;;;;;;;0.10;0.10;;;;;;;22.34;44.14;101199.69;5127921;27;20047;-29
2022/05/12 03:12:02;;;;;;;0.10;0.10;;;;;;;22.35;44.16;101195.78;5128476;28;20077;-30
2022/05/12 03:14:27;;;;;;;0.10;0.10;;;;;;;22.34;44.15;101199.69;5128910;27;20039;-29
2022/05/12 03:16:53;;;;;;;0.10;0.10;;;;;;;22.34;44.28;101201.66;5128601;27;20053;-29
2022/05/12 03:19:21;;;;;;;0.10;0.10;;;;;;;22.34;44.17;101208.03;5126736;27;20406;-29
2022/05/12 03:21:47;;;;;;;0.10;0.10;;;;;;;22.33;44.08;101209.16;5127435;27;20039;-29
2022/05/12 03:24:15;;;;;;;0.03;0.03;;;;;;;22.33;44.19;101211.94;5129265;28;20476;-31
2022/05/12 03:26:40;;;;;;;0.10;0.10;;;;;;;22.34;44.09;101215.53;5126778;27;20135;-30
2022/05/12 03:29:06;;;;;;;0.10;0.10;;;;;;;22.32;44.25;101213.03;5125838;27;20047;-29
2022/05/12 03:31:32;;;;;;;0.10;0.10;;;;;;;22.33;44.25;101220.25;5126519;27;20043;-31
2022/05/12 03:34:00;;;;;;;0.10;0.10;;;;;;;22.32;44.24;101226.06;5129124;27;20505;-30
2022/05/12 03:36:26;;;;;;;0.10;0.10;;;;;;;22.33;44.19;101233.31;5127403;27;20563;-30
2022/05/12 03:38:51;;;;;;;0.10;0.10;;;;;;;22.32;44.21;101223.31;5125548;27;20071;-29
2022/05/12 03:41:17;;;;;;;0.10;0.10;;;;;;;22.32;44.24;101226.06;5127650;27;20054;-29
2022/05/12 03:46:31;;;;;;;0.10;0.10;;;;;;;22.32;44.14;101231.63;5111252;27;20141;-29
2022/05/12 03:48:58;;;;;;;0.10;0.10;;;;;;;22.31;44.16;101239.13;5125884;27;20146;-29
2022/05/12 03:51:23;;;;;;;0.10;0.10;;;;;;;22.31;44.27;101236.34;5126848;27;20185;-30
2022/05/12 03:53:49;;;;;;;0.10;0.10;;;;;;;22.32;44.16;101242.72;5127436;27;20043;-29
2022/05/12 03:56:15;;;;;;;0.10;0.10;;;;;;;22.31;44.16;101249.41;5127683;27;20051;-30
2022/05/12 03:58:40;;;;;;;0.10;0.10;;;;;;;22.31;44.26;101249.41;5127503;27;20465;-29
2022/05/12 04:01:06;;;;;;;0.10;0.10;;;;;;;22.31;44.11;101252.19;5127368;27;20050;-31
2022/05/12 04:03:32;;;;;;;0.10;0.10;;;;;;;22.29;44.22;101256.06;5127268;28;20039;-31
2022/05/12 04:06:01;;;;;;;0.10;0.10;;;;;;;22.30;44.22;101259.69;5127512;27;20092;-29
2022/05/12 04:08:28;;;;;;;0.10;0.10;;;;;;;22.29;44.17;101267.19;5106721;28;20386;-30
2022/05/12 04:10:53;;;;;;;0.10;0.10;;;;;;;22.29;44.18;101267.19;5126773;27;20071;-30
2022/05/12 04:13:19;;;;;;;0.10;0.10;;;;;;;22.28;44.25;101271.09;5128071;28;20760;-29
2022/05/12 04:15:45;;;;;;;0.10;0.10;;;;;;;22.29;44.12;101281.06;5126981;28;20420;-29
2022/05/12 04:18:11;;;;;;;0.10;0.10;;;;;;;22.28;44.24;101282.19;5123421;27;20466;-29
2022/05/12 04:20:37;;;;;;;0.10;0.10;;;;;;;22.28;44.30;101282.19;5127815;27;20047;-29
2022/05/12 04:23:03;;;;;;;0.10;0.10;;;;;;;22.29;44.23;101291.31;5126846;27;20088;-32
2022/05/12 04:25:29;;;;;;;0.10;0.10;;;;;;;22.27;44.20;101297.16;5126803;27;20046;-30
2022/05/12 04:27:55;;;;;;;0.10;0.10;;;;;;;22.27;44.12;101297.16;5127105;28;20043;-29
2022/05/12 04:30:24;;;;;;;0.10;0.10;;;;;;;22.27;44.16;101291.59;5127059;27;20047;-30
2022/05/12 04:32:49;;;;;;;0.10;0.10;;;;;;;22.27;44.29;101293.56;5106715;28;20057;-31
2022/05/12 04:35:16;;;;;;;0.10;0.10;;;;;;;22.26;44.15;101298.28;5126697;28;20047;-29
2022/05/12 04:37:48;;;;;;;0.10;0.10;;;;;;;22.27;44.23;101296.31;5125637;27;20067;-29
2022/05/12 04:40:19;;;;;;;0.10;0.10;;;;;;;22.26;44.17;101306.59;5126896;27;20621;-30
2022/05/12 04:42:47;;;;;;;0.10;0.10;;;;;;;22.26;44.15;101314.09;5130581;27;20043;-30
2022/05/12 04:45:14;;;;;;;0.10;0.10;;;;;;;22.27;44.15;101321.28;5130552;28;20043;-29
2022/05/12 04:47:40;;;;;;;0.10;0.10;;;;;;;22.27;44.17;101326.84;5130595;27;20059;-29
2022/05/12 04:50:08;;;;;;;0.10;0.10;;;;;;;22.25;44.22;101326.31;5129062;27;20575;-29
2022/05/12 04:52:33;;;;;;;0.10;0.10;;;;;;;22.25;44.14;101329.09;5130716;27;20067;-29
2022/05/12 04:54:59;;;;;;;0.10;0.10;;;;;;;22.25;44.13;101327.16;5128777;28;20050;-29
2022/05/12 04:57:25;;;;;;;0.10;0.10;;;;;;;22.25;44.20;101334.66;5128246;27;20043;-30
2022/05/12 04:59:55;;;;;;;0.10;0.10;;;;;;;22.25;44.14;101345.75;5126815;27;20537;-29
2022/05/12 05:02:22;;;;;;;0.10;0.10;;;;;;;22.25;44.17;101345.75;5131274;27;20047;-29
2022/05/12 05:04:49;;;;;;;0.10;0.10;;;;;;;22.25;44.37;101342.97;5110662;28;20047;-30
2022/05/12 05:07:16;;;;;;;0.10;0.10;;;;;;;22.24;44.19;101344.09;5112694;28;20092;-30
2022/05/12 05:09:43;;;;;;;0.10;0.10;;;;;;;22.24;44.19;101347.69;5129225;27;20089;-29
2022/05/12 05:12:08;;;;;;;0.10;0.10;;;;;;;22.23;44.22;101354.34;5130111;28;20200;-31
2022/05/12 05:14:34;;;;;;;0.10;0.10;;;;;;;22.23;44.31;101359.88;5130642;27;20453;-30
2022/05/12 05:17:00;;;;;;;0.10;0.10;;;;;;;22.23;44.38;101365.44;5129320;27;20039;-31
2022/05/12 05:19:25;;;;;;;0.10;0.10;;;;;;;22.24;44.30;101369.06;5127451;27;20463;-30
2022/05/12 05:21:51;;;;;;;0.10;0.10;;;;;;;22.23;44.16;101365.44;5125239;27;20508;-30
2022/05/12 05:24:17;;;;;;;0.10;0.10;;;;;;;22.22;44.18;101374.88;5126665;27;20043;-30
2022/05/12 05:26:42;;;;;;;0.10;0.10;;;;;;;22.23;44.19;101373.75;5129081;27;20074;-30
2022/05/12 05:29:10;;;;;;;0.10;0.10;;;;;;;22.24;44.13;101377.38;5130010;27;20087;-29
2022/05/12 05:31:37;;;;;;;0.00;0.00;;;;;;;22.22;44.18;101380.44;5128461;27;20070;-30
2022/05/12 05:34:03;;;;;;;0.10;0.10;;;;;;;22.20;44.16;101388.22;5129296;27;20390;-30
2022/05/12 05:36:28;;;;;;;0.10;0.10;;;;;;;21.90;44.99;101385.66;5129425;27;20050;-33
2022/05/12 05:38:54;;;;;;;0.10;0.10;;;;;;;22.01;45.05;101388.06;5128685;27;20051;-32
2022/05/12 05:41:20;;;;;;;0.10;0.10;;;;;;;22.15;44.58;101395.75;5126965;27;20495;-30
2022/05/12 05:43:45;;;;;;;0.10;0.10;;;;;;;22.21;44.70;101387.09;5127142;27;20105;-31
2022/05/12 05:46:11;;;;;;;0.10;0.10;;;;;;;22.22;44.82;101399.03;5124086;27;20055;-30
2022/05/12 05:48:41;;;;;;;0.10;0.10;;;;;;;22.24;44.55;101392.09;5122971;27;20521;-31
2022/05/12 05:53:54;;;;;;;0.10;0.10;;;;;;;22.26;44.28;101409.25;5103253;27;20043;-31
2022/05/12 05:56:20;;;;;;;0.10;0.10;;;;;;;22.28;44.28;101411.75;5124354;27;20546;-30
2022/05/12 05:58:45;;;;;;;0.10;0.10;;;;;;;22.20;44.74;101418.75;5122179;27;20047;-29
2022/05/12 06:01:12;;;;;;;0.10;0.10;;;;;;;22.28;44.56;101418.13;5102309;28;20103;-30
2022/05/12 06:03:38;;;;;;;0.10;0.10;;;;;;;22.33;44.46;101428.34;5122919;27;20065;-31
2022/05/12 06:06:04;;;;;;;0.28;0.20;;;;;;;22.33;44.41;101438.63;5127116;27;20494;-30
2022/05/12 06:08:30;;;;;;;0.10;0.10;;;;;;;22.33;44.25;101433.09;5126568;27;20130;-30
2022/05/12 06:10:59;;;;;;;0.10;0.10;;;;;;;22.34;44.24;101431.97;5123499;27;20078;-30
2022/05/12 06:13:24;;;;;;;;;;;;;;;22.35;44.20;101436.38;5132915;27;20461;-30
2022/05/12 06:15:50;;;;;;;0.10;0.10;;;;;;;22.34;44.23;101438.34;5125818;27;19946;-30
2022/05/12 06:18:17;;;;;;;0.10;0.10;;;;;;;22.34;44.18;101441.09;5123437;27;20047;-32
2022/05/12 06:20:44;;;;;;;0.10;0.10;;;;;;;22.36;44.13;101443.59;5109043;28;20133;-31
2022/05/12 06:23:11;;;;;;;0.10;0.10;;;;;;;22.36;44.14;101451.91;5108313;28;20039;-30
2022/05/12 06:25:38;;;;;;;0.10;0.10;;;;;;;21.91;44.56;101456.63;5126277;27;20130;-41
2022/05/12 06:28:04;;;;;;;0.10;0.10;;;;;;;22.17;44.36;101449.84;5131104;27;20066;-33
2022/05/12 06:30:30;;;;;;;0.10;0.10;;;;;;;22.27;44.12;101446.97;5106283;28;20135;-32
2022/05/12 06:32:56;;;;;;;0.10;0.10;;;;;;;22.32;44.04;101450.81;5123740;27;20185;-31
2022/05/12 06:35:24;;;;;;;0.10;0.10;;;;;;;22.35;43.95;101453.03;5116757;27;20142;-31
2022/05/12 06:37:49;;;;;;;0.10;0.10;;;;;;;22.34;44.00;101452.22;5098860;27;20149;-31
2022/05/12 06:40:16;;;;;;;0.10;0.10;;;;;;;22.37;43.91;101453.59;5124935;27;20048;-32
2022/05/12 06:42:49;;;;;;;0.10;0.10;;;;;;;22.38;43.88;101460.78;5111843;28;20043;-32
2022/05/12 06:45:17;;;;;;;0.10;0.10;;;;;;;22.38;43.84;101461.59;5114063;27;20124;-33
2022/05/12 06:47:46;;;;;;;0.10;0.10;;;;;;;22.39;43.92;101459.66;5117357;27;20518;-33
2022/05/12 06:50:12;;;;;;;0.10;0.10;;;;;;;22.40;43.80;101466.84;5097558;27;20370;-32
2022/05/12 06:52:38;;;;;;;0.10;0.10;;;;;;;22.41;43.94;101472.13;5112631;27;20046;-32
2022/05/12 06:55:04;;;;;;;0.10;0.10;;;;;;;22.41;43.90;101469.38;5107582;27;20051;-33
2022/05/12 06:57:30;;;;;;;0.10;0.10;;;;;;;22.42;43.83;101473.78;5114757;27;20134;-32
2022/05/12 06:59:56;;;;;;;0.10;0.10;;;;;;;22.43;43.75;101464.34;5110775;27;20189;-33
2022/05/12 07:02:22;;;;;;;0.10;0.10;;;;;;;22.44;43.94;101471.53;5120345;27;20077;-32
2022/05/12 07:04:52;;;;;;;0.10;0.10;;;;;;;22.44;43.75;101460.44;5112953;27;20047;-32
2022/05/12 07:07:20;;;;;;;0.10;0.10;;;;;;;22.45;43.78;101466.81;5115362;27;20134;-32
2022/05/12 07:09:46;;;;;;;0.10;0.10;;;;;;;22.46;43.74;101468.50;5115154;27;20142;-33
2022/05/12 07:12:19;;;;;;;0.10;0.10;;;;;;;22.47;43.83;101473.75;5115017;27;20050;-32
2022/05/12 07:14:45;;;;;;;0.10;0.10;;;;;;;22.48;43.71;101471.78;5121689;27;20085;-35
2022/05/12 07:17:10;;;;;;;0.10;0.10;;;;;;;22.49;43.68;101481.78;5118933;27;20133;-33
2022/05/12 07:19:36;;;;;;;0.10;0.10;;;;;;;22.49;43.42;101479.81;5119385;27;20358;-32
2022/05/12 07:27:35;;;;;;;0.10;0.10;;;;;;;22.53;43.53;101478.13;5098905;27;20082;-32
2022/05/12 07:30:01;;;;;;;0.00;0.00;;;;;;;22.53;43.63;101478.13;5117445;27;20079;-33
2022/05/12 07:32:26;;;;;;;0.10;0.10;;;;;;;22.38;43.25;101482.97;5124623;27;20393;-36
2022/05/12 07:34:52;;;;;;;0.10;0.10;;;;;;;22.11;43.86;101481.47;5117365;27;20043;-41
2022/05/12 07:37:18;;;;;;;0.10;0.10;;;;;;;22.35;43.95;101492.72;5124412;27;20128;-32
2022/05/12 07:39:43;;;;;;;0.10;0.10;;;;;;;22.46;43.38;101494.28;5122240;27;20051;-33
2022/05/12 07:42:09;;;;;;;0.10;0.10;;;;;;;;;;5121314;27;20039;-32
2022/05/12 07:44:35;;;;;;;0.10;0.10;;;;;;;22.53;43.29;101493.94;5119921;27;20040;-33
2022/05/12 07:47:04;;;;;;;0.10;0.10;;;;;;;22.56;43.38;101500.88;5116137;27;20412;-31
2022/05/12 07:49:35;;;;;;;0.10;0.10;;;;;;;22.58;43.26;101501.41;5101492;27;20074;-32
2022/05/12 07:52:02;;;;;;;0.10;0.10;;;;;;;22.60;43.24;101504.75;5120035;27;20085;-33
2022/05/12 07:54:28;;;;;;;0.10;0.10;;;;;;;22.59;43.21;101501.13;5120651;27;20050;-32
2022/05/12 07:56:54;;;;;;;0.10;0.10;;;;;;;22.62;43.15;101508.88;5122209;27;20070;-33
2022/05/12 07:59:19;;;;;;;0.10;0.10;;;;;;;22.62;43.25;101503.31;5122063;27;20073;-33
2022/05/12 08:01:45;;;;;;;0.10;0.10;;;;;;;22.63;43.09;101502.22;5121099;28;20058;-32
2022/05/12 08:04:12;;;;;;;0.10;0.10;;;;;;;22.63;43.22;101507.75;5115883;27;20079;-33
2022/05/12 08:06:40;;;;;;;0.10;0.10;;;;;;;22.65;43.05;101510.25;5112019;27;20141;-32
2022/05/12 08:09:05;;;;;;;0.10;0.10;;;;;;;22.66;43.17;101517.44;5096201;27;20096;-32
2022/05/12 08:11:31;;;;;;;0.10;0.10;;;;;;;22.65;43.16;101516.63;5118196;27;20042;-32
2022/05/12 08:13:57;;;;;;;0.10;0.10;;;;;;;22.67;43.15;101524.69;5120730;27;20126;-34
2022/05/12 08:16:23;;;;;;;0.10;0.10;;;;;;;22.67;43.18;101522.72;5120971;27;20385;-32
2022/05/12 08:18:50;;;;;;;0.10;0.10;;;;;;;22.67;42.91;101519.94;5119779;27;20040;-32
2022/05/12 08:21:19;;;;;;;0.10;0.10;;;;;;;22.70;43.09;101524.06;5118940;27;20174;-32
2022/05/12 08:23:45;;;;;;;0.10;0.10;;;;;;;22.68;43.02;101527.16;5121092;27;20081;-33
2022/05/12 08:26:11;;;;;;;0.10;0.10;;;;;;;22.69;43.10;101531.59;5121762;27;20051;-32
2022/05/12 08:28:38;;;;;;;0.10;0.10;;;;;;;22.71;42.94;101534.91;5122707;27;20043;-32
2022/05/12 08:31:04;;;;;;;0.10;0.10;;;;;;;22.72;43.00;101535.75;5124681;27;20043;-34
2022/05/12 08:33:35;;;;;;;0.10;0.10;;;;;;;22.72;43.01;101535.75;5119446;27;20135;-33
2022/05/12 08:36:02;;;;;;;0.10;0.10;;;;;;;22.73;42.98;101540.16;5122206;27;20083;-34
2022/05/12 08:38:27;;;;;;;0.10;0.10;;;;;;;22.73;42.93;101529.06;5121317;27;20142;-33
2022/05/12 08:41:05;;;;;;;0.10;0.10;;;;;;;22.74;42.87;101544.59;5117311;27;20043;-33
2022/05/12 08:43:32;;;;;;;;;;;;;;;22.74;42.86;101541.81;5105365;28;20086;-32
2022/05/12 08:46:03;;;;;;;0.10;0.10;;;;;;;22.73;42.93;101535.44;5118162;27;20367;-32
2022/05/12 08:48:29;;;;;;;0.10;0.10;;;;;;;22.74;42.92;101541.81;5116008;27;20079;-32
2022/05/12 08:50:55;;;;;;;0.10;0.10;;;;;;;22.74;42.92;101542.63;5123557;27;20115;-33
2022/05/12 08:53:25;;;;;;;0.10;0.10;;;;;;;22.73;42.93;101540.16;5120718;27;20125;-32
2022/05/12 08:55:53;;;;;;;0.10;0.10;;;;;;;22.56;42.15;101539.75;5102813;27;20137;-28
2022/05/12 08:58:21;;;;;;;;;;;;;;;22.67;42.22;101538.56;5125607;27;20380;-31
2022/05/12 09:01:01;;;;;;;0.10;0.10;;;;;;;22.71;42.33;101536.84;5121006;27;20009;-33
2022/05/12 09:04:13;;;;;;;0.00;0.00;;;;;;;22.71;42.29;101546.03;5122993;27;20407;-31
2022/05/12 09:06:55;;;;;;;0.10;0.10;;;;;;;22.71;42.38;101539.59;5107675;28;20078;-32
2022/05/12 09:09:46;;;;;;;0.10;0.10;;;;;;;22.72;42.47;101539.34;5119353;27;20128;-31
2022/05/12 09:12:31;;;;;;;0.10;0.10;;;;;;;22.73;42.39;101545.72;5103884;27;20146;-30
2022/05/12 09:15:02;;;;;;;0.10;0.10;;;;;;;22.73;42.49;101543.75;5115568;27;20039;-32
2022/05/12 09:17:35;;;;;;;0.10;0.10;;;;;;;22.74;42.42;101537.09;5127248;27;20237;-31
2022/05/12 09:20:01;;;;;;;0.10;0.10;;;;;;;22.75;42.49;101544.31;5120072;27;20141;-30
2022/05/12 09:22:29;;;;;;;0.10;0.10;;;;;;;22.75;42.33;101536.00;5124595;27;20065;-31
2022/05/12 09:24:55;;;;;;;0.00;0.00;;;;;;;22.76;42.41;101536.81;5124498;27;20837;-32
2022/05/12 09:27:32;;;;;;;0.10;0.10;;;;;;;22.76;42.39;101537.63;5123435;27;20067;-30
2022/05/12 09:29:58;;;;;;;0.10;0.10;;;;;;;22.77;42.19;101539.28;5119460;27;20146;-31
2022/05/12 09:32:27;;;;;;;0.10;0.10;;;;;;;22.78;42.34;101535.38;5120609;27;20089;-32
2022/05/12 09:35:12;;;;;;;0.10;0.10;;;;;;;22.78;42.40;101531.78;5121880;27;20494;-31
2022/05/12 09:37:41;;;;;;;0.10;0.10;;;;;;;22.79;42.37;101531.47;5116390;27;20129;-31
2022/05/12 09:43:25;;;;;;;0.10;0.10;;;;;;;22.81;42.33;101535.94;5141351;27;21393;-29
2022/05/12 09:46:19;;;;;;;0.10;0.10;;;;;;;22.81;42.28;101533.16;5097822;27;20047;-27
2022/05/12 09:48:48;;;;;;;0.10;0.10;;;;;;;22.81;42.34;101534.00;5113411;27;20043;-27
2022/05/12 09:51:32;;;;;;;0.10;0.10;;;;;;;22.81;42.29;101534.00;5128071;27;20126;-30
2022/05/12 09:54:23;;;;;;;0.10;0.10;;;;;;;22.82;42.31;101529.25;5128795;27;20118;-30
2022/05/12 09:56:57;;;;;;;0.10;0.10;;;;;;;22.70;40.29;101524.06;5110733;27;20043;-38
2022/05/12 09:59:26;;;;;;;0.10;0.10;;;;;;;22.25;40.02;101524.13;5107831;27;20180;-41
2022/05/12 10:02:05;;;;;;;0.10;0.10;;;;;;;22.58;40.77;101512.50;5123459;27;20540;-31
2022/05/12 10:07:57;;;;;;;0.10;0.10;;;;;;;22.84;40.66;101521.44;5094465;27;20439;-31
2022/05/12 10:10:22;;;;;;;0.10;0.10;;;;;;;22.87;41.12;101524.47;5116605;27;20081;-30
2022/05/12 10:12:58;;;;;;;0.10;0.10;;;;;;;22.90;40.99;101529.50;5123364;27;20565;-31
2022/05/12 10:15:30;;;;;;;0.10;0.10;;;;;;;22.91;41.03;101525.59;5125754;27;20092;-30
2022/05/12 10:18:16;;;;;;;0.10;0.10;;;;;;;22.91;40.97;101520.03;5108399;27;20071;-32
2022/05/12 10:20:44;;;;;;;0.10;0.10;;;;;;;22.93;41.08;101519.75;5129348;27;20572;-31
2022/05/12 10:23:38;;;;;;;0.10;0.10;;;;;;;22.93;41.16;101517.81;5121540;27;20173;-32
2022/05/12 10:26:11;;;;;;;0.10;0.10;;;;;;;22.83;40.93;101526.19;5113538;27;20040;-30
2022/05/12 10:29:07;;;;;;;0.10;0.10;;;;;;;22.95;40.62;101514.72;5124549;27;20093;-30
2022/05/12 10:31:55;;;;;;;0.10;0.10;;;;;;;22.95;40.80;101523.06;5108947;27;20205;-31
2022/05/12 10:34:51;;;;;;;0.10;0.10;;;;;;;22.94;40.85;101527.78;5109554;27;20084;-30
2022/05/12 10:37:42;;;;;;;0.10;0.10;;;;;;;22.96;40.81;101516.38;5125916;27;20082;-32
2022/05/12 10:40:32;;;;;;;0.20;0.20;;;;;;;22.98;40.97;101519.72;5111576;27;20425;-31
2022/05/12 10:43:13;;;;;;;0.10;0.10;;;;;;;22.98;41.08;101517.75;5105240;27;20134;-30
2022/05/12 10:46:04;;;;;;;0.10;0.10;;;;;;;22.98;40.97;101520.53;5120032;27;20134;-31
2022/05/12 10:51:29;;;;;;;0.10;0.10;;;;;;;22.98;41.15;101512.19;5112971;27;20214;-31
2022/05/12 10:54:11;;;;;;;0.10;0.10;;;;;;;23.00;40.92;101506.34;5109915;27;20139;-30
2022/05/12 10:57:17;;;;;;;0.10;0.10;;;;;;;23.01;41.19;101508.00;5107807;27;20047;-31
2022/05/12 10:59:58;;;;;;;0.10;0.10;;;;;;;23.00;41.12;101507.16;5081557;28;20545;-30
2022/05/12 11:02:39;;;;;;;0.10;0.10;;;;;;;23.01;41.13;101516.31;5105454;28;20134;-30
2022/05/12 11:07:51;;;;;;;0.10;0.10;;;;;;;23.03;41.09;101505.75;5148669;27;20594;-28
2022/05/12 11:10:26;;;;;;;0.10;0.10;;;;;;;23.03;41.04;101500.22;5143802;27;20130;-28
2022/05/12 11:12:56;;;;;;;0.10;0.10;;;;;;;23.04;41.22;101504.63;5152462;27;20054;-30
2022/05/12 11:15:26;;;;;;;0.10;0.10;;;;;;;23.06;41.18;101501.56;5149555;27;20495;-30
2022/05/12 11:18:02;;;;;;;0.10;0.10;;;;;;;23.06;41.16;101501.56;5148091;27;20426;-31
2022/05/12 11:20:32;;;;;;;0.10;0.10;;;;;;;23.06;41.18;101499.63;5150977;27;20452;-30
2022/05/12 11:23:23;;;;;;;0.10;0.10;;;;;;;23.07;41.12;101501.28;5151641;27;20478;-31
2022/05/12 11:25:58;;;;;;;0.10;0.10;;;;;;;23.06;41.31;101502.41;5136388;27;20178;-30
2022/05/12 11:31:28;;;;;;;0.10;0.10;;;;;;;23.07;41.25;101508.78;5132843;27;20234;-29
2022/05/12 11:33:58;;;;;;;0.10;0.10;;;;;;;23.08;41.19;101507.66;5117728;27;20059;-29
2022/05/12 11:36:41;;;;;;;0.10;0.10;;;;;;;23.06;41.16;101499.63;5116953;27;20699;-30
2022/05/12 11:39:28;;;;;;;0.05;0.05;;;;;;;23.08;41.15;101502.94;5123671;27;20139;-30
2022/05/12 11:42:21;;;;;;;0.10;0.10;;;;;;;23.07;41.05;101506.00;5126564;27;20382;-31
2022/05/12 11:45:08;;;;;;;0.10;0.10;;;;;;;23.09;41.15;101498.19;5094875;27;20063;-32
2022/05/12 11:47:59;;;;;;;0.00;0.00;;;;;;;23.07;41.16;101494.91;5095074;27;20089;-30
2022/05/12 11:50:33;;;;;;;0.00;0.00;;;;;;;23.05;41.10;101492.41;5097101;27;20122;-29
2022/05/12 11:53:20;;;;;;;0.10;0.10;;;;;;;23.05;41.28;101492.41;5102075;27;20881;-30
2022/05/12 11:56:08;;;;;;;0.10;0.10;;;;;;;23.06;41.24;101484.88;5096801;27;20071;-31
2022/05/12 11:58:41;;;;;;;0.10;0.10;;;;;;;23.04;41.21;101482.41;5095335;27;20135;-31
2022/05/12 12:01:10;;;;;;;0.05;0.05;;;;;;;23.03;41.26;101481.59;5109102;27;20139;-30
2022/05/12 12:03:46;;;;;;;0.05;0.05;;;;;;;23.03;41.09;101486.31;5109727;27;20149;-31